Terminal Aerodrome Forecast
Issued by NWS

Home | Current Version | Previous Version | Text Only | Print | Product List | Glossary On
Versions: 1 2 3 4 5 6 7 8 9 10 11 12 13 14 15 16 17 18 19 20 21 22 23 24
000
FTUS42 KFFC 012339
TAFPDK
TAF
KPDK 012339Z 0200/0224 22007KT P6SM VCSH SCT035 BKN080
      TEMPO 0200/0201 VRB15G25KT 4SM TSRA BKN030CB
     FM020300 24003KT P6SM SCT040 BKN100
     FM020900 00000KT 6SM BR BKN006 BKN040
     FM021400 23003KT P6SM BKN015 BKN030
     FM021600 24006KT P6SM VCSH SCT025 BKN080 PROB30 0218/0224 6SM
      TSRA BKN035CB=

USA.gov is the U.S. government's official web portal to all federal, state and local government web resources and services.